sensor_id;sensor_type;location;lat;lon;timestamp;temperature;humidity
68804;SHT31;55787;52.678;13.314;2023-03-23T00:01:24;9.67;81.99
68804;SHT31;55787;52.678;13.314;2023-03-23T00:03:53;9.63;82.29
68804;SHT31;55787;52.678;13.314;2023-03-23T00:06:24;9.56;82.28
68804;SHT31;55787;52.678;13.314;2023-03-23T00:08:51;9.52;82.19
68804;SHT31;55787;52.678;13.314;2023-03-23T00:11:24;9.46;82.49
68804;SHT31;55787;52.678;13.314;2023-03-23T00:13:52;9.39;83.27
68804;SHT31;55787;52.678;13.314;2023-03-23T00:16:22;9.42;83.27
68804;SHT31;55787;52.678;13.314;2023-03-23T00:18:58;9.38;83.14
68804;SHT31;55787;52.678;13.314;2023-03-23T00:21:26;9.38;83.21
68804;SHT31;55787;52.678;13.314;2023-03-23T00:24:07;9.35;84.03
68804;SHT31;55787;52.678;13.314;2023-03-23T00:26:35;9.25;83.90
68804;SHT31;55787;52.678;13.314;2023-03-23T00:29:04;9.24;83.79
68804;SHT31;55787;52.678;13.314;2023-03-23T00:31:31;9.24;83.84
68804;SHT31;55787;52.678;13.314;2023-03-23T00:34:04;9.18;83.66
68804;SHT31;55787;52.678;13.314;2023-03-23T00:36:31;9.25;83.54
68804;SHT31;55787;52.678;13.314;2023-03-23T00:38:58;9.33;83.05
68804;SHT31;55787;52.678;13.314;2023-03-23T00:41:25;9.29;82.92
68804;SHT31;55787;52.678;13.314;2023-03-23T00:43:56;9.35;82.64
68804;SHT31;55787;52.678;13.314;2023-03-23T00:46:22;9.31;82.62
68804;SHT31;55787;52.678;13.314;2023-03-23T00:48:48;9.31;82.70
68804;SHT31;55787;52.678;13.314;2023-03-23T00:51:16;9.24;82.99
68804;SHT31;55787;52.678;13.314;2023-03-23T00:53:43;9.21;82.85
68804;SHT31;55787;52.678;13.314;2023-03-23T00:56:08;9.18;82.62
68804;SHT31;55787;52.678;13.314;2023-03-23T00:58:34;9.18;82.73
68804;SHT31;55787;52.678;13.314;2023-03-23T01:01:00;9.21;82.75
68804;SHT31;55787;52.678;13.314;2023-03-23T01:03:26;9.25;82.48
68804;SHT31;55787;52.678;13.314;2023-03-23T01:05:54;9.28;82.20
68804;SHT31;55787;52.678;13.314;2023-03-23T01:08:22;9.22;82.24
68804;SHT31;55787;52.678;13.314;2023-03-23T01:10:48;9.15;82.64
68804;SHT31;55787;52.678;13.314;2023-03-23T01:13:14;9.14;82.78
68804;SHT31;55787;52.678;13.314;2023-03-23T01:15:41;9.12;82.83
68804;SHT31;55787;52.678;13.314;2023-03-23T01:18:08;9.15;82.60
68804;SHT31;55787;52.678;13.314;2023-03-23T01:20:35;9.15;82.56
68804;SHT31;55787;52.678;13.314;2023-03-23T01:23:01;9.18;82.42
68804;SHT31;55787;52.678;13.314;2023-03-23T01:25:28;9.21;82.52
68804;SHT31;55787;52.678;13.314;2023-03-23T01:27:54;9.21;82.67
68804;SHT31;55787;52.678;13.314;2023-03-23T01:30:20;9.21;82.47
68804;SHT31;55787;52.678;13.314;2023-03-23T01:32:45;9.19;82.67
68804;SHT31;55787;52.678;13.314;2023-03-23T01:35:13;9.19;82.90
68804;SHT31;55787;52.678;13.314;2023-03-23T01:37:39;9.36;82.04
68804;SHT31;55787;52.678;13.314;2023-03-23T01:40:05;9.38;82.07
68804;SHT31;55787;52.678;13.314;2023-03-23T01:42:33;9.47;81.43
68804;SHT31;55787;52.678;13.314;2023-03-23T01:50:33;9.72;80.50
68804;SHT31;55787;52.678;13.314;2023-03-23T01:53:01;9.80;80.07
68804;SHT31;55787;52.678;13.314;2023-03-23T01:55:28;9.94;79.91
68804;SHT31;55787;52.678;13.314;2023-03-23T01:57:55;10.04;79.35
68804;SHT31;55787;52.678;13.314;2023-03-23T02:00:21;10.15;78.90
68804;SHT31;55787;52.678;13.314;2023-03-23T02:02:49;10.45;77.61
68804;SHT31;55787;52.678;13.314;2023-03-23T02:05:22;10.34;77.94
68804;SHT31;55787;52.678;13.314;2023-03-23T02:07:49;10.37;78.03
68804;SHT31;55787;52.678;13.314;2023-03-23T02:10:16;10.49;77.25
68804;SHT31;55787;52.678;13.314;2023-03-23T02:12:42;10.63;76.94
68804;SHT31;55787;52.678;13.314;2023-03-23T02:15:08;10.68;76.84
68804;SHT31;55787;52.678;13.314;2023-03-23T02:17:54;10.71;76.67
68804;SHT31;55787;52.678;13.314;2023-03-23T02:20:48;10.68;76.98
68804;SHT31;55787;52.678;13.314;2023-03-23T02:26:15;10.82;76.39
68804;SHT31;55787;52.678;13.314;2023-03-23T02:34:18;11.14;74.83
68804;SHT31;55787;52.678;13.314;2023-03-23T02:36:50;11.06;75.34
68804;SHT31;55787;52.678;13.314;2023-03-23T02:39:24;11.22;74.62
68804;SHT31;55787;52.678;13.314;2023-03-23T02:41:57;11.22;74.56
68804;SHT31;55787;52.678;13.314;2023-03-23T02:44:24;11.22;74.69
68804;SHT31;55787;52.678;13.314;2023-03-23T02:46:56;11.23;75.00
68804;SHT31;55787;52.678;13.314;2023-03-23T02:49:23;11.26;75.38
68804;SHT31;55787;52.678;13.314;2023-03-23T02:51:51;11.34;75.42
68804;SHT31;55787;52.678;13.314;2023-03-23T02:54:18;11.35;75.41
68804;SHT31;55787;52.678;13.314;2023-03-23T02:56:45;11.33;75.50
68804;SHT31;55787;52.678;13.314;2023-03-23T02:59:13;11.24;76.24
68804;SHT31;55787;52.678;13.314;2023-03-23T03:04:10;11.34;75.38
68804;SHT31;55787;52.678;13.314;2023-03-23T03:06:51;11.28;76.17
68804;SHT31;55787;52.678;13.314;2023-03-23T03:12:03;11.35;75.54
68804;SHT31;55787;52.678;13.314;2023-03-23T03:14:48;11.41;74.73
68804;SHT31;55787;52.678;13.314;2023-03-23T03:17:24;11.35;75.44
68804;SHT31;55787;52.678;13.314;2023-03-23T03:20:01;11.43;74.98
68804;SHT31;55787;52.678;13.314;2023-03-23T03:22:37;11.40;75.39
68804;SHT31;55787;52.678;13.314;2023-03-23T03:25:04;11.41;75.65
68804;SHT31;55787;52.678;13.314;2023-03-23T03:27:30;11.33;76.77
68804;SHT31;55787;52.678;13.314;2023-03-23T03:29:59;11.24;77.06
68804;SHT31;55787;52.678;13.314;2023-03-23T03:32:31;11.19;78.34
68804;SHT31;55787;52.678;13.314;2023-03-23T03:35:01;11.13;79.04
68804;SHT31;55787;52.678;13.314;2023-03-23T03:37:33;10.95;81.04
68804;SHT31;55787;52.678;13.314;2023-03-23T03:39:59;10.96;82.40
68804;SHT31;55787;52.678;13.314;2023-03-23T03:42:25;10.77;85.88
68804;SHT31;55787;52.678;13.314;2023-03-23T03:44:51;10.61;86.57
68804;SHT31;55787;52.678;13.314;2023-03-23T03:47:16;10.49;87.55
68804;SHT31;55787;52.678;13.314;2023-03-23T03:49:42;10.41;89.31
68804;SHT31;55787;52.678;13.314;2023-03-23T03:52:08;10.31;89.85
68804;SHT31;55787;52.678;13.314;2023-03-23T03:54:33;10.22;88.44
68804;SHT31;55787;52.678;13.314;2023-03-23T03:56:59;10.17;90.04
68804;SHT31;55787;52.678;13.314;2023-03-23T03:59:24;10.11;91.32
68804;SHT31;55787;52.678;13.314;2023-03-23T04:01:51;10.05;91.52
68804;SHT31;55787;52.678;13.314;2023-03-23T04:04:21;10.01;90.83
68804;SHT31;55787;52.678;13.314;2023-03-23T04:06:47;10.00;91.32
68804;SHT31;55787;52.678;13.314;2023-03-23T04:09:14;9.98;92.11
68804;SHT31;55787;52.678;13.314;2023-03-23T04:11:39;9.98;91.86
68804;SHT31;55787;52.678;13.314;2023-03-23T04:14:05;9.95;92.19
68804;SHT31;55787;52.678;13.314;2023-03-23T04:16:32;9.91;93.11
68804;SHT31;55787;52.678;13.314;2023-03-23T04:19:00;9.89;93.67
68804;SHT31;55787;52.678;13.314;2023-03-23T04:21:26;9.86;93.82
68804;SHT31;55787;52.678;13.314;2023-03-23T04:23:57;9.84;93.79
68804;SHT31;55787;52.678;13.314;2023-03-23T04:26:29;9.80;92.15
68804;SHT31;55787;52.678;13.314;2023-03-23T04:28:55;9.84;92.02
68804;SHT31;55787;52.678;13.314;2023-03-23T04:31:22;9.87;91.62
68804;SHT31;55787;52.678;13.314;2023-03-23T04:33:51;9.89;91.73
68804;SHT31;55787;52.678;13.314;2023-03-23T04:36:18;9.91;92.11
68804;SHT31;55787;52.678;13.314;2023-03-23T04:38:44;9.93;91.99
68804;SHT31;55787;52.678;13.314;2023-03-23T04:41:09;9.91;92.18
68804;SHT31;55787;52.678;13.314;2023-03-23T04:43:35;9.91;92.49
68804;SHT31;55787;52.678;13.314;2023-03-23T04:46:07;9.90;92.75
68804;SHT31;55787;52.678;13.314;2023-03-23T04:48:34;9.89;93.30
68804;SHT31;55787;52.678;13.314;2023-03-23T04:51:02;9.87;93.50
68804;SHT31;55787;52.678;13.314;2023-03-23T04:53:29;9.89;92.71
68804;SHT31;55787;52.678;13.314;2023-03-23T04:55:56;9.90;92.70
68804;SHT31;55787;52.678;13.314;2023-03-23T04:58:21;9.89;93.25
68804;SHT31;55787;52.678;13.314;2023-03-23T05:00:50;9.90;93.18
68804;SHT31;55787;52.678;13.314;2023-03-23T05:03:19;9.89;92.87
68804;SHT31;55787;52.678;13.314;2023-03-23T05:05:45;9.89;93.60
68804;SHT31;55787;52.678;13.314;2023-03-23T05:08:13;9.86;93.95
68804;SHT31;55787;52.678;13.314;2023-03-23T05:10:39;9.84;94.81
68804;SHT31;55787;52.678;13.314;2023-03-23T05:13:06;9.80;94.60
68804;SHT31;55787;52.678;13.314;2023-03-23T05:15:32;9.80;95.17
68804;SHT31;55787;52.678;13.314;2023-03-23T05:17:57;9.74;95.36
68804;SHT31;55787;52.678;13.314;2023-03-23T05:20:23;9.73;95.33
68804;SHT31;55787;52.678;13.314;2023-03-23T05:22:50;9.76;95.13
68804;SHT31;55787;52.678;13.314;2023-03-23T05:25:16;9.76;95.31
68804;SHT31;55787;52.678;13.314;2023-03-23T05:27:46;9.77;95.82
68804;SHT31;55787;52.678;13.314;2023-03-23T05:30:19;9.77;95.81
68804;SHT31;55787;52.678;13.314;2023-03-23T05:32:44;9.76;95.45
68804;SHT31;55787;52.678;13.314;2023-03-23T05:35:11;9.70;96.14
68804;SHT31;55787;52.678;13.314;2023-03-23T05:37:37;9.73;96.05
68804;SHT31;55787;52.678;13.314;2023-03-23T05:40:05;9.73;96.07
68804;SHT31;55787;52.678;13.314;2023-03-23T05:42:35;9.69;96.36
68804;SHT31;55787;52.678;13.314;2023-03-23T05:45:05;9.70;96.61
68804;SHT31;55787;52.678;13.314;2023-03-23T05:47:31;9.70;96.60
68804;SHT31;55787;52.678;13.314;2023-03-23T05:49:57;9.66;96.42
68804;SHT31;55787;52.678;13.314;2023-03-23T05:52:23;9.70;96.42
68804;SHT31;55787;52.678;13.314;2023-03-23T05:54:49;9.70;95.94
68804;SHT31;55787;52.678;13.314;2023-03-23T05:57:15;9.70;95.97
68804;SHT31;55787;52.678;13.314;2023-03-23T05:59:41;9.67;95.81
68804;SHT31;55787;52.678;13.314;2023-03-23T06:02:07;9.69;95.70
68804;SHT31;55787;52.678;13.314;2023-03-23T06:04:32;9.69;95.68
68804;SHT31;55787;52.678;13.314;2023-03-23T06:07:00;9.72;95.75
68804;SHT31;55787;52.678;13.314;2023-03-23T06:09:28;9.72;95.58
68804;SHT31;55787;52.678;13.314;2023-03-23T06:11:54;9.66;95.30
68804;SHT31;55787;52.678;13.314;2023-03-23T06:14:19;9.66;95.22
68804;SHT31;55787;52.678;13.314;2023-03-23T06:16:46;9.69;95.37
68804;SHT31;55787;52.678;13.314;2023-03-23T06:19:12;9.72;95.44
68804;SHT31;55787;52.678;13.314;2023-03-23T06:21:38;9.67;95.78
68804;SHT31;55787;52.678;13.314;2023-03-23T06:24:03;9.69;95.75
68804;SHT31;55787;52.678;13.314;2023-03-23T06:26:32;9.72;95.61
68804;SHT31;55787;52.678;13.314;2023-03-23T06:28:59;9.83;95.42
68804;SHT31;55787;52.678;13.314;2023-03-23T06:31:26;9.79;95.81
68804;SHT31;55787;52.678;13.314;2023-03-23T06:33:52;9.73;95.91
68804;SHT31;55787;52.678;13.314;2023-03-23T06:36:18;9.73;96.29
68804;SHT31;55787;52.678;13.314;2023-03-23T06:38:44;9.74;96.40
68804;SHT31;55787;52.678;13.314;2023-03-23T06:41:10;9.77;96.33
68804;SHT31;55787;52.678;13.314;2023-03-23T06:43:36;9.69;96.76
68804;SHT31;55787;52.678;13.314;2023-03-23T06:46:05;9.77;96.70
68804;SHT31;55787;52.678;13.314;2023-03-23T06:48:31;9.77;96.73
68804;SHT31;55787;52.678;13.314;2023-03-23T06:50:57;9.83;96.53
68804;SHT31;55787;52.678;13.314;2023-03-23T06:53:23;9.83;96.69
68804;SHT31;55787;52.678;13.314;2023-03-23T06:55:49;9.83;97.01
68804;SHT31;55787;52.678;13.314;2023-03-23T06:58:14;9.84;96.80
68804;SHT31;55787;52.678;13.314;2023-03-23T07:00:40;9.90;97.01
68804;SHT31;55787;52.678;13.314;2023-03-23T07:03:06;9.97;96.77
68804;SHT31;55787;52.678;13.314;2023-03-23T07:05:33;9.98;96.55
68804;SHT31;55787;52.678;13.314;2023-03-23T07:08:01;9.93;97.16
68804;SHT31;55787;52.678;13.314;2023-03-23T07:10:26;10.08;96.82
68804;SHT31;55787;52.678;13.314;2023-03-23T07:12:52;10.00;96.99
68804;SHT31;55787;52.678;13.314;2023-03-23T07:15:18;10.05;96.60
68804;SHT31;55787;52.678;13.314;2023-03-23T07:17:43;10.04;96.83
68804;SHT31;55787;52.678;13.314;2023-03-23T07:20:09;10.10;97.01
68804;SHT31;55787;52.678;13.314;2023-03-23T07:22:35;10.11;96.77
68804;SHT31;55787;52.678;13.314;2023-03-23T07:25:01;10.10;96.91
68804;SHT31;55787;52.678;13.314;2023-03-23T07:27:26;10.15;96.75
68804;SHT31;55787;52.678;13.314;2023-03-23T07:29:52;10.20;96.72
68804;SHT31;55787;52.678;13.314;2023-03-23T07:32:18;10.25;96.38
68804;SHT31;55787;52.678;13.314;2023-03-23T07:34:43;10.18;96.50
68804;SHT31;55787;52.678;13.314;2023-03-23T07:37:10;10.20;96.91
68804;SHT31;55787;52.678;13.314;2023-03-23T07:39:36;10.27;96.67
68804;SHT31;55787;52.678;13.314;2023-03-23T07:42:02;10.38;96.00
68804;SHT31;55787;52.678;13.314;2023-03-23T07:44:27;10.35;96.62
68804;SHT31;55787;52.678;13.314;2023-03-23T07:46:53;10.38;96.75
68804;SHT31;55787;52.678;13.314;2023-03-23T07:49:19;10.46;96.47
68804;SHT31;55787;52.678;13.314;2023-03-23T07:51:45;10.41;96.32
68804;SHT31;55787;52.678;13.314;2023-03-23T07:54:10;10.59;96.39
68804;SHT31;55787;52.678;13.314;2023-03-23T07:56:37;10.54;95.48
68804;SHT31;55787;52.678;13.314;2023-03-23T07:59:05;10.69;95.53
68804;SHT31;55787;52.678;13.314;2023-03-23T08:01:32;10.68;96.13
68804;SHT31;55787;52.678;13.314;2023-03-23T08:03:58;10.76;95.64
68804;SHT31;55787;52.678;13.314;2023-03-23T08:06:24;10.73;95.95
68804;SHT31;55787;52.678;13.314;2023-03-23T08:08:50;10.63;96.09
68804;SHT31;55787;52.678;13.314;2023-03-23T08:11:17;10.65;96.30
68804;SHT31;55787;52.678;13.314;2023-03-23T08:13:42;10.79;95.48
68804;SHT31;55787;52.678;13.314;2023-03-23T08:16:09;10.75;95.78
68804;SHT31;55787;52.678;13.314;2023-03-23T08:18:35;10.88;95.38
68804;SHT31;55787;52.678;13.314;2023-03-23T08:21:03;10.83;95.75
68804;SHT31;55787;52.678;13.314;2023-03-23T08:23:31;10.71;95.92
68804;SHT31;55787;52.678;13.314;2023-03-23T08:25:58;10.80;95.80
68804;SHT31;55787;52.678;13.314;2023-03-23T08:28:24;10.89;95.78
68804;SHT31;55787;52.678;13.314;2023-03-23T08:30:49;10.91;95.13
68804;SHT31;55787;52.678;13.314;2023-03-23T08:33:15;10.89;95.04
68804;SHT31;55787;52.678;13.314;2023-03-23T08:35:41;11.02;94.80
68804;SHT31;55787;52.678;13.314;2023-03-23T08:38:10;11.04;94.22
68804;SHT31;55787;52.678;13.314;2023-03-23T08:40:37;10.96;94.37
68804;SHT31;55787;52.678;13.314;2023-03-23T08:43:02;11.07;94.31
68804;SHT31;55787;52.678;13.314;2023-03-23T08:45:28;11.37;94.16
68804;SHT31;55787;52.678;13.314;2023-03-23T08:47:54;11.50;93.41
68804;SHT31;55787;52.678;13.314;2023-03-23T08:50:26;11.50;93.02
68804;SHT31;55787;52.678;13.314;2023-03-23T08:52:53;11.44;93.51
68804;SHT31;55787;52.678;13.314;2023-03-23T08:55:20;11.34;93.25
68804;SHT31;55787;52.678;13.314;2023-03-23T08:57:46;11.40;93.45
68804;SHT31;55787;52.678;13.314;2023-03-23T09:00:15;11.44;93.19
68804;SHT31;55787;52.678;13.314;2023-03-23T09:02:47;11.51;93.00
68804;SHT31;55787;52.678;13.314;2023-03-23T09:05:19;11.47;92.58
68804;SHT31;55787;52.678;13.314;2023-03-23T09:07:48;11.38;92.69
68804;SHT31;55787;52.678;13.314;2023-03-23T09:10:15;11.54;91.97
68804;SHT31;55787;52.678;13.314;2023-03-23T09:12:41;11.53;92.11
68804;SHT31;55787;52.678;13.314;2023-03-23T09:15:09;11.47;91.58
68804;SHT31;55787;52.678;13.314;2023-03-23T09:17:39;11.82;91.03
68804;SHT31;55787;52.678;13.314;2023-03-23T09:20:07;12.08;89.48
68804;SHT31;55787;52.678;13.314;2023-03-23T09:22:41;12.21;88.96
68804;SHT31;55787;52.678;13.314;2023-03-23T09:25:08;12.94;87.79
68804;SHT31;55787;52.678;13.314;2023-03-23T09:27:35;13.51;84.73
68804;SHT31;55787;52.678;13.314;2023-03-23T09:30:06;14.54;81.82
68804;SHT31;55787;52.678;13.314;2023-03-23T09:32:34;15.26;78.42
68804;SHT31;55787;52.678;13.314;2023-03-23T09:35:05;15.12;77.87
68804;SHT31;55787;52.678;13.314;2023-03-23T09:37:33;15.29;76.39
68804;SHT31;55787;52.678;13.314;2023-03-23T09:40:02;14.48;79.67
68804;SHT31;55787;52.678;13.314;2023-03-23T09:50:27;17.51;71.78
68804;SHT31;55787;52.678;13.314;2023-03-23T09:53:08;18.27;69.56
68804;SHT31;55787;52.678;13.314;2023-03-23T09:55:34;17.89;67.56
68804;SHT31;55787;52.678;13.314;2023-03-23T09:58:24;17.49;70.28
68804;SHT31;55787;52.678;13.314;2023-03-23T10:01:04;16.36;74.43
68804;SHT31;55787;52.678;13.314;2023-03-23T10:03:37;16.26;73.82
68804;SHT31;55787;52.678;13.314;2023-03-23T10:06:04;15.14;75.81
68804;SHT31;55787;52.678;13.314;2023-03-23T10:08:31;15.18;75.73
68804;SHT31;55787;52.678;13.314;2023-03-23T10:11:04;15.10;74.41
68804;SHT31;55787;52.678;13.314;2023-03-23T10:16:04;14.98;75.09
68804;SHT31;55787;52.678;13.314;2023-03-23T10:21:21;14.91;76.92
68804;SHT31;55787;52.678;13.314;2023-03-23T10:23:58;14.40;77.39
68804;SHT31;55787;52.678;13.314;2023-03-23T10:26:29;14.67;76.09
68804;SHT31;55787;52.678;13.314;2023-03-23T10:29:08;14.85;75.63
68804;SHT31;55787;52.678;13.314;2023-03-23T10:31:43;14.91;75.84
68804;SHT31;55787;52.678;13.314;2023-03-23T10:34:15;14.89;74.74
68804;SHT31;55787;52.678;13.314;2023-03-23T10:39:28;15.41;74.27
68804;SHT31;55787;52.678;13.314;2023-03-23T10:41:55;15.77;73.43
68804;SHT31;55787;52.678;13.314;2023-03-23T10:44:24;15.97;72.28
68804;SHT31;55787;52.678;13.314;2023-03-23T10:47:02;16.48;70.82
68804;SHT31;55787;52.678;13.314;2023-03-23T10:55:06;15.77;72.50
68804;SHT31;55787;52.678;13.314;2023-03-23T10:57:34;16.34;71.15
68804;SHT31;55787;52.678;13.314;2023-03-23T11:02:31;15.81;71.64
68804;SHT31;55787;52.678;13.314;2023-03-23T11:05:03;15.78;71.36
68804;SHT31;55787;52.678;13.314;2023-03-23T11:07:32;15.14;72.39
68804;SHT31;55787;52.678;13.314;2023-03-23T11:10:16;15.23;73.19
68804;SHT31;55787;52.678;13.314;2023-03-23T11:12:45;15.09;73.83
68804;SHT31;55787;52.678;13.314;2023-03-23T11:15:32;14.73;73.85
68804;SHT31;55787;52.678;13.314;2023-03-23T11:18:25;14.73;74.94
68804;SHT31;55787;52.678;13.314;2023-03-23T11:20:55;14.83;74.14
68804;SHT31;55787;52.678;13.314;2023-03-23T11:23:30;15.23;73.27
68804;SHT31;55787;52.678;13.314;2023-03-23T11:28:50;15.13;71.71
68804;SHT31;55787;52.678;13.314;2023-03-23T11:31:22;14.88;73.09
68804;SHT31;55787;52.678;13.314;2023-03-23T11:34:05;14.92;71.82
68804;SHT31;55787;52.678;13.314;2023-03-23T11:36:42;15.24;73.28
68804;SHT31;55787;52.678;13.314;2023-03-23T11:39:27;15.24;70.67
68804;SHT31;55787;52.678;13.314;2023-03-23T11:41:54;15.60;71.51
68804;SHT31;55787;52.678;13.314;2023-03-23T11:44:22;15.92;70.66
68804;SHT31;55787;52.678;13.314;2023-03-23T11:47:04;15.57;70.93
68804;SHT31;55787;52.678;13.314;2023-03-23T11:49:50;15.47;70.25
68804;SHT31;55787;52.678;13.314;2023-03-23T11:55:07;15.55;70.87
68804;SHT31;55787;52.678;13.314;2023-03-23T11:57:35;15.33;71.12
68804;SHT31;55787;52.678;13.314;2023-03-23T12:00:01;15.06;71.17
68804;SHT31;55787;52.678;13.314;2023-03-23T12:02:52;15.22;71.79
68804;SHT31;55787;52.678;13.314;2023-03-23T12:14:20;14.95;71.23
68804;SHT31;55787;52.678;13.314;2023-03-23T12:19:37;14.93;70.41
68804;SHT31;55787;52.678;13.314;2023-03-23T12:32:57;14.96;70.76
68804;SHT31;55787;52.678;13.314;2023-03-23T12:41:01;14.79;70.63
68804;SHT31;55787;52.678;13.314;2023-03-23T12:43:51;14.75;70.98
68804;SHT31;55787;52.678;13.314;2023-03-23T12:49:17;14.92;70.62
68804;SHT31;55787;52.678;13.314;2023-03-23T12:51:58;15.13;70.77
68804;SHT31;55787;52.678;13.314;2023-03-23T12:57:09;15.58;69.56
68804;SHT31;55787;52.678;13.314;2023-03-23T12:59:44;16.06;68.13
68804;SHT31;55787;52.678;13.314;2023-03-23T13:02:51;16.93;65.43
68804;SHT31;55787;52.678;13.314;2023-03-23T13:07:53;17.82;61.26
68804;SHT31;55787;52.678;13.314;2023-03-23T13:10:27;18.37;59.46
68804;SHT31;55787;52.678;13.314;2023-03-23T13:12:54;17.94;61.04
68804;SHT31;55787;52.678;13.314;2023-03-23T13:20:43;17.48;62.96
68804;SHT31;55787;52.678;13.314;2023-03-23T13:23:20;17.04;64.06
68804;SHT31;55787;52.678;13.314;2023-03-23T13:26:02;17.75;62.93
68804;SHT31;55787;52.678;13.314;2023-03-23T13:31:13;17.34;61.38
68804;SHT31;55787;52.678;13.314;2023-03-23T13:33:46;16.69;62.41
68804;SHT31;55787;52.678;13.314;2023-03-23T13:36:27;16.52;63.60
68804;SHT31;55787;52.678;13.314;2023-03-23T13:38:53;16.94;62.84
68804;SHT31;55787;52.678;13.314;2023-03-23T13:41:20;16.59;62.70
68804;SHT31;55787;52.678;13.314;2023-03-23T13:43:47;17.21;62.15
68804;SHT31;55787;52.678;13.314;2023-03-23T13:48:49;17.49;60.38
68804;SHT31;55787;52.678;13.314;2023-03-23T14:01:39;17.49;58.95
68804;SHT31;55787;52.678;13.314;2023-03-23T14:04:17;18.23;56.71
68804;SHT31;55787;52.678;13.314;2023-03-23T14:06:48;18.51;55.62
68804;SHT31;55787;52.678;13.314;2023-03-23T14:09:30;18.92;55.23
68804;SHT31;55787;52.678;13.314;2023-03-23T14:11:59;18.00;57.45
68804;SHT31;55787;52.678;13.314;2023-03-23T14:14:41;17.43;57.94
68804;SHT31;55787;52.678;13.314;2023-03-23T14:17:16;17.62;57.69
68804;SHT31;55787;52.678;13.314;2023-03-23T14:19:47;18.79;54.70
68804;SHT31;55787;52.678;13.314;2023-03-23T14:22:23;19.81;53.55
68804;SHT31;55787;52.678;13.314;2023-03-23T14:24:49;18.13;56.17
68804;SHT31;55787;52.678;13.314;2023-03-23T14:27:18;17.82;56.48
68804;SHT31;55787;52.678;13.314;2023-03-23T14:29:45;16.85;60.00
68804;SHT31;55787;52.678;13.314;2023-03-23T14:32:15;16.83;59.74
68804;SHT31;55787;52.678;13.314;2023-03-23T14:34:41;16.84;60.22
68804;SHT31;55787;52.678;13.314;2023-03-23T14:37:12;16.66;60.54
68804;SHT31;55787;52.678;13.314;2023-03-23T14:39:38;16.83;58.80
68804;SHT31;55787;52.678;13.314;2023-03-23T14:42:11;16.93;59.18
68804;SHT31;55787;52.678;13.314;2023-03-23T14:44:47;16.59;59.59
68804;SHT31;55787;52.678;13.314;2023-03-23T14:47:35;17.80;56.60
68804;SHT31;55787;52.678;13.314;2023-03-23T14:50:04;17.55;57.40
68804;SHT31;55787;52.678;13.314;2023-03-23T14:52:35;17.27;56.62
68804;SHT31;55787;52.678;13.314;2023-03-23T14:55:12;16.57;59.21
68804;SHT31;55787;52.678;13.314;2023-03-23T14:57:41;17.32;57.73
68804;SHT31;55787;52.678;13.314;2023-03-23T15:00:32;18.41;55.90
68804;SHT31;55787;52.678;13.314;2023-03-23T15:03:01;18.71;54.00
68804;SHT31;55787;52.678;13.314;2023-03-23T15:05:33;19.12;51.86
68804;SHT31;55787;52.678;13.314;2023-03-23T15:08:07;19.13;51.63
68804;SHT31;55787;52.678;13.314;2023-03-23T15:10:33;18.76;52.23
68804;SHT31;55787;52.678;13.314;2023-03-23T15:12:59;19.22;51.39
68804;SHT31;55787;52.678;13.314;2023-03-23T15:15:31;19.19;51.62
68804;SHT31;55787;52.678;13.314;2023-03-23T15:17:57;18.54;52.64
68804;SHT31;55787;52.678;13.314;2023-03-23T15:20:29;18.27;53.28
68804;SHT31;55787;52.678;13.314;2023-03-23T15:22:56;18.13;54.97
68804;SHT31;55787;52.678;13.314;2023-03-23T15:25:30;17.43;54.55
68804;SHT31;55787;52.678;13.314;2023-03-23T15:28:12;17.01;55.84
68804;SHT31;55787;52.678;13.314;2023-03-23T15:30:50;17.07;56.02
68804;SHT31;55787;52.678;13.314;2023-03-23T15:33:17;17.21;56.15
68804;SHT31;55787;52.678;13.314;2023-03-23T15:35:50;17.14;54.80
68804;SHT31;55787;52.678;13.314;2023-03-23T15:38:24;17.01;54.42
68804;SHT31;55787;52.678;13.314;2023-03-23T15:40:52;16.71;56.52
68804;SHT31;55787;52.678;13.314;2023-03-23T15:43:20;16.62;55.50
68804;SHT31;55787;52.678;13.314;2023-03-23T15:46:03;16.46;55.62
68804;SHT31;55787;52.678;13.314;2023-03-23T15:48:32;16.38;56.04
68804;SHT31;55787;52.678;13.314;2023-03-23T15:50:59;16.32;55.79
68804;SHT31;55787;52.678;13.314;2023-03-23T15:53:33;16.25;56.56
68804;SHT31;55787;52.678;13.314;2023-03-23T15:56:01;16.12;56.90
68804;SHT31;55787;52.678;13.314;2023-03-23T15:58:27;16.09;57.25
68804;SHT31;55787;52.678;13.314;2023-03-23T16:00:54;15.98;57.86
68804;SHT31;55787;52.678;13.314;2023-03-23T16:03:27;15.91;57.83
68804;SHT31;55787;52.678;13.314;2023-03-23T16:05:57;15.97;63.89
68804;SHT31;55787;52.678;13.314;2023-03-23T16:08:25;15.75;67.57
68804;SHT31;55787;52.678;13.314;2023-03-23T16:10:52;15.13;71.27
68804;SHT31;55787;52.678;13.314;2023-03-23T16:13:18;14.72;73.83
68804;SHT31;55787;52.678;13.314;2023-03-23T16:15:46;14.34;75.63
68804;SHT31;55787;52.678;13.314;2023-03-23T16:18:18;14.14;76.17
68804;SHT31;55787;52.678;13.314;2023-03-23T16:20:47;14.00;76.99
68804;SHT31;55787;52.678;13.314;2023-03-23T16:23:14;13.89;77.48
68804;SHT31;55787;52.678;13.314;2023-03-23T16:25:41;13.77;77.48
68804;SHT31;55787;52.678;13.314;2023-03-23T16:28:11;13.72;78.07
68804;SHT31;55787;52.678;13.314;2023-03-23T16:30:38;13.77;78.19
68804;SHT31;55787;52.678;13.314;2023-03-23T16:33:05;13.73;78.17
68804;SHT31;55787;52.678;13.314;2023-03-23T16:35:32;13.70;78.68
68804;SHT31;55787;52.678;13.314;2023-03-23T16:37:59;13.61;78.71
68804;SHT31;55787;52.678;13.314;2023-03-23T16:40:37;13.45;79.72
68804;SHT31;55787;52.678;13.314;2023-03-23T16:43:04;13.35;79.88
68804;SHT31;55787;52.678;13.314;2023-03-23T16:45:35;13.22;80.58
68804;SHT31;55787;52.678;13.314;2023-03-23T16:48:03;13.19;80.49
68804;SHT31;55787;52.678;13.314;2023-03-23T16:50:31;13.08;81.23
68804;SHT31;55787;52.678;13.314;2023-03-23T16:52:58;13.08;80.89
68804;SHT31;55787;52.678;13.314;2023-03-23T16:55:24;13.01;81.07
68804;SHT31;55787;52.678;13.314;2023-03-23T16:57:53;12.93;81.64
68804;SHT31;55787;52.678;13.314;2023-03-23T17:00:39;12.85;81.43
68804;SHT31;55787;52.678;13.314;2023-03-23T17:03:06;12.81;81.81
68804;SHT31;55787;52.678;13.314;2023-03-23T17:05:34;12.74;81.34
68804;SHT31;55787;52.678;13.314;2023-03-23T17:08:02;12.60;80.98
68804;SHT31;55787;52.678;13.314;2023-03-23T17:10:29;12.54;81.07
68804;SHT31;55787;52.678;13.314;2023-03-23T17:12:56;12.56;81.49
68804;SHT31;55787;52.678;13.314;2023-03-23T17:15:23;12.49;81.35
68804;SHT31;55787;52.678;13.314;2023-03-23T17:17:51;12.40;81.47
68804;SHT31;55787;52.678;13.314;2023-03-23T17:20:18;12.40;81.15